sensor_id;sensor_type;location;lat;lon;timestamp;P1;durP1;ratioP1;P2;durP2;ratioP2
68995;SDS011;56056;48.990;12.146;2022-09-09T00:00:06;7.25;;;3.97;;
68995;SDS011;56056;48.990;12.146;2022-09-09T00:02:38;8.68;;;4.10;;
68995;SDS011;56056;48.990;12.146;2022-09-09T00:05:09;4.30;;;4.00;;
68995;SDS011;56056;48.990;12.146;2022-09-09T00:07:42;4.55;;;4.15;;
68995;SDS011;56056;48.990;12.146;2022-09-09T00:10:14;5.95;;;5.15;;
68995;SDS011;56056;48.990;12.146;2022-09-09T00:12:47;4.78;;;4.38;;
68995;SDS011;56056;48.990;12.146;2022-09-09T00:15:21;8.85;;;5.40;;
68995;SDS011;56056;48.990;12.146;2022-09-09T00:17:51;6.07;;;4.95;;
68995;SDS011;56056;48.990;12.146;2022-09-09T00:20:21;7.90;;;5.25;;
68995;SDS011;56056;48.990;12.146;2022-09-09T00:22:50;5.53;;;5.03;;
68995;SDS011;56056;48.990;12.146;2022-09-09T00:25:23;5.68;;;4.93;;
68995;SDS011;56056;48.990;12.146;2022-09-09T00:27:53;6.15;;;4.93;;
68995;SDS011;56056;48.990;12.146;2022-09-09T00:30:21;6.90;;;6.15;;
68995;SDS011;56056;48.990;12.146;2022-09-09T00:32:49;5.85;;;5.20;;
68995;SDS011;56056;48.990;12.146;2022-09-09T00:35:21;6.78;;;5.50;;
68995;SDS011;56056;48.990;12.146;2022-09-09T00:37:49;6.78;;;6.20;;
68995;SDS011;56056;48.990;12.146;2022-09-09T00:40:18;7.57;;;6.22;;
68995;SDS011;56056;48.990;12.146;2022-09-09T00:42:48;6.85;;;6.32;;
68995;SDS011;56056;48.990;12.146;2022-09-09T00:45:19;8.98;;;6.85;;
68995;SDS011;56056;48.990;12.146;2022-09-09T00:48:03;7.03;;;6.43;;
68995;SDS011;56056;48.990;12.146;2022-09-09T00:50:35;7.32;;;6.50;;
68995;SDS011;56056;48.990;12.146;2022-09-09T00:53:10;8.73;;;6.55;;
68995;SDS011;56056;48.990;12.146;2022-09-09T00:55:45;8.25;;;7.50;;
68995;SDS011;56056;48.990;12.146;2022-09-09T00:58:13;9.80;;;8.80;;
68995;SDS011;56056;48.990;12.146;2022-09-09T01:00:41;10.88;;;9.88;;
68995;SDS011;56056;48.990;12.146;2022-09-09T01:03:13;13.13;;;11.73;;
68995;SDS011;56056;48.990;12.146;2022-09-09T01:05:51;12.35;;;11.32;;
68995;SDS011;56056;48.990;12.146;2022-09-09T01:08:36;13.00;;;11.70;;
68995;SDS011;56056;48.990;12.146;2022-09-09T01:11:09;12.85;;;11.70;;
68995;SDS011;56056;48.990;12.146;2022-09-09T01:13:37;13.35;;;12.07;;
68995;SDS011;56056;48.990;12.146;2022-09-09T01:16:04;13.35;;;12.05;;
68995;SDS011;56056;48.990;12.146;2022-09-09T01:18:34;12.98;;;11.35;;
68995;SDS011;56056;48.990;12.146;2022-09-09T01:21:04;13.02;;;11.82;;
68995;SDS011;56056;48.990;12.146;2022-09-09T01:23:38;14.45;;;12.13;;
68995;SDS011;56056;48.990;12.146;2022-09-09T01:26:19;13.10;;;11.88;;
68995;SDS011;56056;48.990;12.146;2022-09-09T01:28:48;12.95;;;11.52;;
68995;SDS011;56056;48.990;12.146;2022-09-09T01:31:15;13.13;;;11.77;;
68995;SDS011;56056;48.990;12.146;2022-09-09T01:33:43;12.65;;;11.43;;
68995;SDS011;56056;48.990;12.146;2022-09-09T01:36:09;13.63;;;12.23;;
68995;SDS011;56056;48.990;12.146;2022-09-09T01:38:37;13.43;;;12.10;;
68995;SDS011;56056;48.990;12.146;2022-09-09T01:41:03;15.23;;;12.20;;
68995;SDS011;56056;48.990;12.146;2022-09-09T01:43:30;13.60;;;12.20;;
68995;SDS011;56056;48.990;12.146;2022-09-09T01:45:56;12.90;;;11.48;;
68995;SDS011;56056;48.990;12.146;2022-09-09T01:48:24;15.68;;;11.73;;
68995;SDS011;56056;48.990;12.146;2022-09-09T01:50:50;14.45;;;12.02;;
68995;SDS011;56056;48.990;12.146;2022-09-09T01:53:17;12.70;;;11.13;;
68995;SDS011;56056;48.990;12.146;2022-09-09T01:55:49;12.38;;;11.07;;
68995;SDS011;56056;48.990;12.146;2022-09-09T01:58:23;11.98;;;10.77;;
68995;SDS011;56056;48.990;12.146;2022-09-09T02:01:00;11.27;;;10.13;;
68995;SDS011;56056;48.990;12.146;2022-09-09T02:03:31;12.75;;;10.75;;
68995;SDS011;56056;48.990;12.146;2022-09-09T02:06:00;10.73;;;9.73;;
68995;SDS011;56056;48.990;12.146;2022-09-09T02:08:33;13.00;;;10.10;;
68995;SDS011;56056;48.990;12.146;2022-09-09T02:11:05;11.18;;;10.05;;
68995;SDS011;56056;48.990;12.146;2022-09-09T02:13:34;10.90;;;9.90;;
68995;SDS011;56056;48.990;12.146;2022-09-09T02:16:02;11.50;;;10.38;;
68995;SDS011;56056;48.990;12.146;2022-09-09T02:18:30;10.10;;;9.20;;
68995;SDS011;56056;48.990;12.146;2022-09-09T02:20:59;10.57;;;9.48;;
68995;SDS011;56056;48.990;12.146;2022-09-09T02:23:25;10.52;;;9.50;;
68995;SDS011;56056;48.990;12.146;2022-09-09T02:25:51;10.88;;;9.88;;
68995;SDS011;56056;48.990;12.146;2022-09-09T02:28:19;12.77;;;11.23;;
68995;SDS011;56056;48.990;12.146;2022-09-09T02:30:47;12.23;;;10.20;;
68995;SDS011;56056;48.990;12.146;2022-09-09T02:33:15;12.90;;;11.65;;
68995;SDS011;56056;48.990;12.146;2022-09-09T02:35:41;12.35;;;9.80;;
68995;SDS011;56056;48.990;12.146;2022-09-09T02:38:09;12.25;;;10.07;;
68995;SDS011;56056;48.990;12.146;2022-09-09T02:40:37;11.77;;;10.57;;
68995;SDS011;56056;48.990;12.146;2022-09-09T02:43:03;11.20;;;10.13;;
68995;SDS011;56056;48.990;12.146;2022-09-09T02:45:31;12.13;;;10.98;;
68995;SDS011;56056;48.990;12.146;2022-09-09T02:48:03;11.15;;;10.05;;
68995;SDS011;56056;48.990;12.146;2022-09-09T02:50:35;10.45;;;9.45;;
68995;SDS011;56056;48.990;12.146;2022-09-09T02:53:07;10.90;;;9.88;;
68995;SDS011;56056;48.990;12.146;2022-09-09T02:55:38;11.57;;;10.35;;
68995;SDS011;56056;48.990;12.146;2022-09-09T02:58:05;10.55;;;9.65;;
68995;SDS011;56056;48.990;12.146;2022-09-09T03:00:32;10.98;;;9.85;;
68995;SDS011;56056;48.990;12.146;2022-09-09T03:02:58;10.80;;;9.85;;
68995;SDS011;56056;48.990;12.146;2022-09-09T03:05:25;10.40;;;9.50;;
68995;SDS011;56056;48.990;12.146;2022-09-09T03:07:51;10.30;;;9.30;;
68995;SDS011;56056;48.990;12.146;2022-09-09T03:10:16;10.18;;;9.20;;
68995;SDS011;56056;48.990;12.146;2022-09-09T03:12:42;9.88;;;9.00;;
68995;SDS011;56056;48.990;12.146;2022-09-09T03:15:08;10.82;;;9.93;;
68995;SDS011;56056;48.990;12.146;2022-09-09T03:17:35;9.90;;;9.00;;
68995;SDS011;56056;48.990;12.146;2022-09-09T03:20:01;12.32;;;9.15;;
68995;SDS011;56056;48.990;12.146;2022-09-09T03:22:28;9.45;;;8.55;;
68995;SDS011;56056;48.990;12.146;2022-09-09T03:24:54;10.25;;;9.25;;
68995;SDS011;56056;48.990;12.146;2022-09-09T03:27:19;10.73;;;9.73;;
68995;SDS011;56056;48.990;12.146;2022-09-09T03:29:45;10.13;;;9.13;;
68995;SDS011;56056;48.990;12.146;2022-09-09T03:32:11;10.05;;;9.18;;
68995;SDS011;56056;48.990;12.146;2022-09-09T03:34:37;13.75;;;10.68;;
68995;SDS011;56056;48.990;12.146;2022-09-09T03:37:05;12.45;;;11.25;;
68995;SDS011;56056;48.990;12.146;2022-09-09T03:39:32;11.85;;;10.70;;
68995;SDS011;56056;48.990;12.146;2022-09-09T03:41:58;13.82;;;12.48;;
68995;SDS011;56056;48.990;12.146;2022-09-09T03:44:23;13.20;;;11.90;;
68995;SDS011;56056;48.990;12.146;2022-09-09T03:46:49;13.43;;;12.02;;
68995;SDS011;56056;48.990;12.146;2022-09-09T03:49:15;14.95;;;13.18;;
68995;SDS011;56056;48.990;12.146;2022-09-09T03:51:41;14.45;;;13.02;;
68995;SDS011;56056;48.990;12.146;2022-09-09T03:54:07;14.43;;;12.95;;
68995;SDS011;56056;48.990;12.146;2022-09-09T03:56:36;14.30;;;12.90;;
68995;SDS011;56056;48.990;12.146;2022-09-09T03:59:02;13.10;;;11.80;;
68995;SDS011;56056;48.990;12.146;2022-09-09T04:01:28;13.43;;;12.13;;
68995;SDS011;56056;48.990;12.146;2022-09-09T04:03:54;12.82;;;11.52;;
68995;SDS011;56056;48.990;12.146;2022-09-09T04:06:23;15.02;;;12.70;;
68995;SDS011;56056;48.990;12.146;2022-09-09T04:08:49;13.93;;;12.52;;
68995;SDS011;56056;48.990;12.146;2022-09-09T04:11:15;14.35;;;12.48;;
68995;SDS011;56056;48.990;12.146;2022-09-09T04:13:42;14.27;;;12.85;;
68995;SDS011;56056;48.990;12.146;2022-09-09T04:16:09;14.70;;;11.45;;
68995;SDS011;56056;48.990;12.146;2022-09-09T04:18:36;13.05;;;11.60;;
68995;SDS011;56056;48.990;12.146;2022-09-09T04:21:02;12.75;;;11.55;;
68995;SDS011;56056;48.990;12.146;2022-09-09T04:23:29;13.15;;;11.43;;
68995;SDS011;56056;48.990;12.146;2022-09-09T04:25:55;13.07;;;11.77;;
68995;SDS011;56056;48.990;12.146;2022-09-09T04:28:22;14.93;;;12.93;;
68995;SDS011;56056;48.990;12.146;2022-09-09T04:30:50;13.10;;;11.65;;
68995;SDS011;56056;48.990;12.146;2022-09-09T04:33:17;12.80;;;11.45;;
68995;SDS011;56056;48.990;12.146;2022-09-09T04:35:44;12.30;;;11.30;;
68995;SDS011;56056;48.990;12.146;2022-09-09T04:38:10;12.30;;;11.15;;
68995;SDS011;56056;48.990;12.146;2022-09-09T04:40:35;13.02;;;11.93;;
68995;SDS011;56056;48.990;12.146;2022-09-09T04:43:02;14.02;;;12.63;;
68995;SDS011;56056;48.990;12.146;2022-09-09T04:45:29;13.15;;;11.85;;
68995;SDS011;56056;48.990;12.146;2022-09-09T04:47:57;14.02;;;12.60;;
68995;SDS011;56056;48.990;12.146;2022-09-09T04:50:22;15.10;;;12.25;;
68995;SDS011;56056;48.990;12.146;2022-09-09T04:52:48;12.07;;;11.13;;
68995;SDS011;56056;48.990;12.146;2022-09-09T04:55:14;11.93;;;10.93;;
68995;SDS011;56056;48.990;12.146;2022-09-09T04:57:40;10.73;;;9.82;;
68995;SDS011;56056;48.990;12.146;2022-09-09T05:00:06;12.30;;;10.07;;
68995;SDS011;56056;48.990;12.146;2022-09-09T05:02:32;13.43;;;11.00;;
68995;SDS011;56056;48.990;12.146;2022-09-09T05:04:59;12.27;;;11.23;;
68995;SDS011;56056;48.990;12.146;2022-09-09T05:07:26;11.05;;;9.95;;
68995;SDS011;56056;48.990;12.146;2022-09-09T05:09:52;10.77;;;9.77;;
68995;SDS011;56056;48.990;12.146;2022-09-09T05:12:18;11.88;;;10.70;;
68995;SDS011;56056;48.990;12.146;2022-09-09T05:14:44;11.27;;;10.18;;
68995;SDS011;56056;48.990;12.146;2022-09-09T05:17:09;12.07;;;10.98;;
68995;SDS011;56056;48.990;12.146;2022-09-09T05:19:35;13.23;;;11.95;;
68995;SDS011;56056;48.990;12.146;2022-09-09T05:22:03;12.82;;;11.57;;
68995;SDS011;56056;48.990;12.146;2022-09-09T05:24:29;39.85;;;12.10;;
68995;SDS011;56056;48.990;12.146;2022-09-09T05:26:58;15.32;;;11.85;;
68995;SDS011;56056;48.990;12.146;2022-09-09T05:29:24;16.33;;;11.93;;
68995;SDS011;56056;48.990;12.146;2022-09-09T05:31:51;27.05;;;13.05;;
68995;SDS011;56056;48.990;12.146;2022-09-09T05:34:17;21.73;;;13.15;;
68995;SDS011;56056;48.990;12.146;2022-09-09T05:36:42;20.55;;;12.18;;
68995;SDS011;56056;48.990;12.146;2022-09-09T05:39:09;14.00;;;11.90;;
68995;SDS011;56056;48.990;12.146;2022-09-09T05:41:37;15.27;;;11.40;;
68995;SDS011;56056;48.990;12.146;2022-09-09T05:44:02;22.48;;;11.45;;
68995;SDS011;56056;48.990;12.146;2022-09-09T05:46:28;14.18;;;12.68;;
68995;SDS011;56056;48.990;12.146;2022-09-09T05:48:54;25.52;;;12.13;;
68995;SDS011;56056;48.990;12.146;2022-09-09T05:51:20;14.20;;;12.88;;
68995;SDS011;56056;48.990;12.146;2022-09-09T05:53:47;13.85;;;12.45;;
68995;SDS011;56056;48.990;12.146;2022-09-09T05:56:15;14.82;;;13.13;;
68995;SDS011;56056;48.990;12.146;2022-09-09T05:58:45;13.13;;;11.75;;
68995;SDS011;56056;48.990;12.146;2022-09-09T06:01:14;13.30;;;11.93;;
68995;SDS011;56056;48.990;12.146;2022-09-09T06:03:42;12.98;;;11.77;;
68995;SDS011;56056;48.990;12.146;2022-09-09T06:06:09;12.82;;;11.50;;
68995;SDS011;56056;48.990;12.146;2022-09-09T06:08:36;13.00;;;11.80;;
68995;SDS011;56056;48.990;12.146;2022-09-09T06:11:04;12.88;;;11.68;;
68995;SDS011;56056;48.990;12.146;2022-09-09T06:13:32;12.82;;;11.25;;
68995;SDS011;56056;48.990;12.146;2022-09-09T06:15:58;13.43;;;12.00;;
68995;SDS011;56056;48.990;12.146;2022-09-09T06:18:24;13.18;;;11.82;;
68995;SDS011;56056;48.990;12.146;2022-09-09T06:20:53;11.73;;;10.32;;
68995;SDS011;56056;48.990;12.146;2022-09-09T06:23:19;12.77;;;11.40;;
68995;SDS011;56056;48.990;12.146;2022-09-09T06:25:45;12.73;;;10.23;;
68995;SDS011;56056;48.990;12.146;2022-09-09T06:28:11;11.32;;;10.35;;
68995;SDS011;56056;48.990;12.146;2022-09-09T06:30:37;11.85;;;10.80;;
68995;SDS011;56056;48.990;12.146;2022-09-09T06:33:03;10.93;;;9.82;;
68995;SDS011;56056;48.990;12.146;2022-09-09T06:35:29;11.63;;;10.45;;
68995;SDS011;56056;48.990;12.146;2022-09-09T06:37:54;12.40;;;11.02;;
68995;SDS011;56056;48.990;12.146;2022-09-09T06:40:20;11.45;;;10.35;;
68995;SDS011;56056;48.990;12.146;2022-09-09T06:42:46;11.18;;;10.10;;
68995;SDS011;56056;48.990;12.146;2022-09-09T06:45:11;11.70;;;10.70;;
68995;SDS011;56056;48.990;12.146;2022-09-09T06:47:38;11.43;;;10.38;;
68995;SDS011;56056;48.990;12.146;2022-09-09T06:50:04;10.85;;;9.90;;
68995;SDS011;56056;48.990;12.146;2022-09-09T06:52:32;10.80;;;9.85;;
68995;SDS011;56056;48.990;12.146;2022-09-09T06:54:58;9.35;;;8.45;;
68995;SDS011;56056;48.990;12.146;2022-09-09T06:57:24;8.73;;;7.75;;
68995;SDS011;56056;48.990;12.146;2022-09-09T06:59:49;7.78;;;6.85;;
68995;SDS011;56056;48.990;12.146;2022-09-09T07:02:15;7.28;;;6.70;;
68995;SDS011;56056;48.990;12.146;2022-09-09T07:04:42;6.00;;;5.50;;
68995;SDS011;56056;48.990;12.146;2022-09-09T07:07:08;6.20;;;5.40;;
68995;SDS011;56056;48.990;12.146;2022-09-09T07:09:34;5.60;;;5.30;;
68995;SDS011;56056;48.990;12.146;2022-09-09T07:12:00;5.50;;;5.10;;
68995;SDS011;56056;48.990;12.146;2022-09-09T07:14:26;5.03;;;4.63;;
68995;SDS011;56056;48.990;12.146;2022-09-09T07:16:52;4.93;;;4.63;;
68995;SDS011;56056;48.990;12.146;2022-09-09T07:19:18;9.88;;;4.88;;
68995;SDS011;56056;48.990;12.146;2022-09-09T07:21:45;5.78;;;5.22;;
68995;SDS011;56056;48.990;12.146;2022-09-09T07:24:10;5.75;;;5.35;;
68995;SDS011;56056;48.990;12.146;2022-09-09T07:26:37;5.10;;;4.80;;
68995;SDS011;56056;48.990;12.146;2022-09-09T07:29:03;5.40;;;4.80;;
68995;SDS011;56056;48.990;12.146;2022-09-09T07:31:30;5.45;;;4.93;;
68995;SDS011;56056;48.990;12.146;2022-09-09T07:33:57;6.20;;;5.55;;
68995;SDS011;56056;48.990;12.146;2022-09-09T07:36:25;5.75;;;4.93;;
68995;SDS011;56056;48.990;12.146;2022-09-09T07:38:54;8.45;;;5.53;;
68995;SDS011;56056;48.990;12.146;2022-09-09T07:41:21;6.18;;;5.68;;
68995;SDS011;56056;48.990;12.146;2022-09-09T07:43:49;6.85;;;5.70;;
68995;SDS011;56056;48.990;12.146;2022-09-09T07:46:16;6.50;;;6.00;;
68995;SDS011;56056;48.990;12.146;2022-09-09T07:48:43;8.25;;;7.38;;
68995;SDS011;56056;48.990;12.146;2022-09-09T07:51:10;37.40;;;33.72;;
68995;SDS011;56056;48.990;12.146;2022-09-09T07:53:37;10.15;;;9.30;;
68995;SDS011;56056;48.990;12.146;2022-09-09T07:56:05;6.07;;;5.68;;
68995;SDS011;56056;48.990;12.146;2022-09-09T07:58:32;8.43;;;7.70;;
68995;SDS011;56056;48.990;12.146;2022-09-09T08:00:58;7.30;;;6.70;;
68995;SDS011;56056;48.990;12.146;2022-09-09T08:03:23;7.60;;;6.97;;
68995;SDS011;56056;48.990;12.146;2022-09-09T08:05:50;7.40;;;6.80;;
68995;SDS011;56056;48.990;12.146;2022-09-09T08:08:16;8.60;;;7.90;;
68995;SDS011;56056;48.990;12.146;2022-09-09T08:10:42;8.75;;;7.82;;
68995;SDS011;56056;48.990;12.146;2022-09-09T08:13:09;7.82;;;7.13;;
68995;SDS011;56056;48.990;12.146;2022-09-09T08:15:35;7.75;;;7.15;;
68995;SDS011;56056;48.990;12.146;2022-09-09T08:18:00;7.13;;;6.63;;
68995;SDS011;56056;48.990;12.146;2022-09-09T08:20:27;6.78;;;6.18;;
68995;SDS011;56056;48.990;12.146;2022-09-09T08:22:54;7.43;;;6.55;;
68995;SDS011;56056;48.990;12.146;2022-09-09T08:25:20;6.22;;;5.82;;
68995;SDS011;56056;48.990;12.146;2022-09-09T08:27:46;6.00;;;5.60;;
68995;SDS011;56056;48.990;12.146;2022-09-09T08:30:13;6.07;;;5.65;;
68995;SDS011;56056;48.990;12.146;2022-09-09T08:32:39;6.13;;;5.70;;
68995;SDS011;56056;48.990;12.146;2022-09-09T08:35:05;6.13;;;5.63;;
68995;SDS011;56056;48.990;12.146;2022-09-09T08:37:31;9.45;;;5.03;;
68995;SDS011;56056;48.990;12.146;2022-09-09T08:39:57;8.15;;;5.07;;
68995;SDS011;56056;48.990;12.146;2022-09-09T08:42:25;5.57;;;4.80;;
68995;SDS011;56056;48.990;12.146;2022-09-09T08:44:58;5.32;;;4.88;;
68995;SDS011;56056;48.990;12.146;2022-09-09T08:47:57;4.93;;;4.47;;
68995;SDS011;56056;48.990;12.146;2022-09-09T08:50:30;4.97;;;4.47;;
68995;SDS011;56056;48.990;12.146;2022-09-09T08:53:00;4.40;;;4.00;;
68995;SDS011;56056;48.990;12.146;2022-09-09T08:55:29;5.32;;;4.35;;
68995;SDS011;56056;48.990;12.146;2022-09-09T08:58:05;4.63;;;4.28;;
68995;SDS011;56056;48.990;12.146;2022-09-09T09:00:36;5.05;;;4.65;;
68995;SDS011;56056;48.990;12.146;2022-09-09T09:03:13;4.60;;;4.30;;
68995;SDS011;56056;48.990;12.146;2022-09-09T09:05:46;5.43;;;4.07;;
68995;SDS011;56056;48.990;12.146;2022-09-09T09:08:18;4.78;;;4.38;;
68995;SDS011;56056;48.990;12.146;2022-09-09T09:10:50;4.88;;;4.57;;
68995;SDS011;56056;48.990;12.146;2022-09-09T09:13:17;5.68;;;5.20;;
68995;SDS011;56056;48.990;12.146;2022-09-09T09:15:46;4.88;;;4.53;;
68995;SDS011;56056;48.990;12.146;2022-09-09T09:18:16;5.22;;;4.65;;
68995;SDS011;56056;48.990;12.146;2022-09-09T09:20:44;6.03;;;4.38;;
68995;SDS011;56056;48.990;12.146;2022-09-09T09:23:21;3.88;;;3.58;;
68995;SDS011;56056;48.990;12.146;2022-09-09T09:25:47;5.55;;;4.55;;
68995;SDS011;56056;48.990;12.146;2022-09-09T09:28:15;4.68;;;3.75;;
68995;SDS011;56056;48.990;12.146;2022-09-09T09:30:42;5.00;;;4.43;;
68995;SDS011;56056;48.990;12.146;2022-09-09T09:33:12;4.20;;;3.90;;
68995;SDS011;56056;48.990;12.146;2022-09-09T09:35:42;3.90;;;3.70;;
68995;SDS011;56056;48.990;12.146;2022-09-09T09:38:11;5.28;;;3.22;;
68995;SDS011;56056;48.990;12.146;2022-09-09T09:40:47;3.63;;;3.25;;
68995;SDS011;56056;48.990;12.146;2022-09-09T09:43:17;3.72;;;3.22;;
68995;SDS011;56056;48.990;12.146;2022-09-09T09:45:45;3.38;;;3.17;;
68995;SDS011;56056;48.990;12.146;2022-09-09T09:48:11;3.67;;;3.33;;
68995;SDS011;56056;48.990;12.146;2022-09-09T09:50:46;3.30;;;3.00;;
68995;SDS011;56056;48.990;12.146;2022-09-09T09:53:16;2.95;;;2.75;;
68995;SDS011;56056;48.990;12.146;2022-09-09T09:55:46;3.10;;;2.80;;
68995;SDS011;56056;48.990;12.146;2022-09-09T09:58:17;2.90;;;2.67;;
68995;SDS011;56056;48.990;12.146;2022-09-09T10:00:47;3.03;;;2.72;;
68995;SDS011;56056;48.990;12.146;2022-09-09T10:03:18;2.90;;;2.70;;
68995;SDS011;56056;48.990;12.146;2022-09-09T10:05:48;4.40;;;3.00;;
68995;SDS011;56056;48.990;12.146;2022-09-09T10:08:15;4.40;;;2.72;;
68995;SDS011;56056;48.990;12.146;2022-09-09T10:13:29;2.75;;;2.28;;
68995;SDS011;56056;48.990;12.146;2022-09-09T10:16:05;3.10;;;2.28;;
68995;SDS011;56056;48.990;12.146;2022-09-09T10:18:41;2.60;;;2.42;;
68995;SDS011;56056;48.990;12.146;2022-09-09T10:21:19;2.72;;;2.53;;
68995;SDS011;56056;48.990;12.146;2022-09-09T10:23:58;2.83;;;2.63;;
68995;SDS011;56056;48.990;12.146;2022-09-09T10:26:35;2.95;;;2.75;;
68995;SDS011;56056;48.990;12.146;2022-09-09T10:29:24;4.22;;;2.67;;
68995;SDS011;56056;48.990;12.146;2022-09-09T10:31:59;1.70;;;1.63;;
68995;SDS011;56056;48.990;12.146;2022-09-09T10:34:35;2.42;;;2.33;;
68995;SDS011;56056;48.990;12.146;2022-09-09T10:37:15;2.38;;;2.17;;
68995;SDS011;56056;48.990;12.146;2022-09-09T10:39:48;3.15;;;2.50;;
68995;SDS011;56056;48.990;12.146;2022-09-09T10:42:23;2.75;;;2.55;;
68995;SDS011;56056;48.990;12.146;2022-09-09T10:44:57;2.92;;;2.20;;
68995;SDS011;56056;48.990;12.146;2022-09-09T10:47:36;2.40;;;2.22;;
68995;SDS011;56056;48.990;12.146;2022-09-09T10:50:15;3.30;;;2.20;;
68995;SDS011;56056;48.990;12.146;2022-09-09T10:52:52;34.70;;;31.17;;
68995;SDS011;56056;48.990;12.146;2022-09-09T10:55:23;28.92;;;23.13;;
68995;SDS011;56056;48.990;12.146;2022-09-09T10:57:53;2.00;;;1.90;;
68995;SDS011;56056;48.990;12.146;2022-09-09T11:00:21;2.08;;;1.95;;
68995;SDS011;56056;48.990;12.146;2022-09-09T11:02:48;5.40;;;3.70;;
68995;SDS011;56056;48.990;12.146;2022-09-09T11:05:18;3.05;;;2.75;;
68995;SDS011;56056;48.990;12.146;2022-09-09T11:07:47;2.70;;;2.40;;
68995;SDS011;56056;48.990;12.146;2022-09-09T11:10:19;2.38;;;2.17;;
68995;SDS011;56056;48.990;12.146;2022-09-09T11:12:49;2.60;;;2.40;;
68995;SDS011;56056;48.990;12.146;2022-09-09T11:15:17;2.10;;;2.00;;
68995;SDS011;56056;48.990;12.146;2022-09-09T11:17:46;2.20;;;2.10;;
68995;SDS011;56056;48.990;12.146;2022-09-09T11:20:14;2.85;;;2.00;;
68995;SDS011;56056;48.990;12.146;2022-09-09T11:22:42;2.47;;;2.13;;
68995;SDS011;56056;48.990;12.146;2022-09-09T11:25:14;1.77;;;1.67;;
68995;SDS011;56056;48.990;12.146;2022-09-09T11:27:44;2.17;;;2.05;;
68995;SDS011;56056;48.990;12.146;2022-09-09T11:30:18;2.80;;;2.60;;
68995;SDS011;56056;48.990;12.146;2022-09-09T11:32:53;2.67;;;2.47;;
68995;SDS011;56056;48.990;12.146;2022-09-09T11:35:46;3.35;;;2.17;;
68995;SDS011;56056;48.990;12.146;2022-09-09T11:38:22;2.17;;;2.08;;
68995;SDS011;56056;48.990;12.146;2022-09-09T11:40:55;2.22;;;2.13;;
68995;SDS011;56056;48.990;12.146;2022-09-09T11:43:25;2.22;;;2.13;;
68995;SDS011;56056;48.990;12.146;2022-09-09T11:45:54;2.90;;;2.33;;
68995;SDS011;56056;48.990;12.146;2022-09-09T11:48:25;3.30;;;2.15;;
68995;SDS011;56056;48.990;12.146;2022-09-09T11:51:00;2.08;;;2.00;;
68995;SDS011;56056;48.990;12.146;2022-09-09T11:53:31;2.30;;;2.20;;
68995;SDS011;56056;48.990;12.146;2022-09-09T11:56:02;1.88;;;1.77;;
68995;SDS011;56056;48.990;12.146;2022-09-09T11:58:31;2.10;;;1.90;;
68995;SDS011;56056;48.990;12.146;2022-09-09T12:01:02;2.25;;;1.80;;
68995;SDS011;56056;48.990;12.146;2022-09-09T12:03:40;2.50;;;2.10;;
68995;SDS011;56056;48.990;12.146;2022-09-09T12:06:11;2.88;;;1.77;;
68995;SDS011;56056;48.990;12.146;2022-09-09T12:08:41;5.55;;;2.92;;
68995;SDS011;56056;48.990;12.146;2022-09-09T12:11:08;1.73;;;1.63;;
68995;SDS011;56056;48.990;12.146;2022-09-09T12:13:35;3.30;;;2.10;;
68995;SDS011;56056;48.990;12.146;2022-09-09T12:16:01;3.70;;;1.95;;
68995;SDS011;56056;48.990;12.146;2022-09-09T12:18:31;4.20;;;1.75;;
68995;SDS011;56056;48.990;12.146;2022-09-09T12:21:06;2.20;;;1.95;;
68995;SDS011;56056;48.990;12.146;2022-09-09T12:23:37;1.67;;;1.58;;
68995;SDS011;56056;48.990;12.146;2022-09-09T12:26:12;3.38;;;2.42;;
68995;SDS011;56056;48.990;12.146;2022-09-09T12:28:56;3.45;;;1.88;;
68995;SDS011;56056;48.990;12.146;2022-09-09T12:31:27;2.05;;;1.85;;
68995;SDS011;56056;48.990;12.146;2022-09-09T12:34:02;2.20;;;2.03;;
68995;SDS011;56056;48.990;12.146;2022-09-09T12:36:34;2.65;;;2.00;;
68995;SDS011;56056;48.990;12.146;2022-09-09T12:39:09;2.67;;;2.10;;
68995;SDS011;56056;48.990;12.146;2022-09-09T12:41:36;1.85;;;1.75;;
68995;SDS011;56056;48.990;12.146;2022-09-09T12:44:06;2.38;;;2.17;;
68995;SDS011;56056;48.990;12.146;2022-09-09T12:46:36;4.55;;;4.13;;
68995;SDS011;56056;48.990;12.146;2022-09-09T12:49:05;2.20;;;1.58;;
68995;SDS011;56056;48.990;12.146;2022-09-09T12:51:43;2.33;;;1.98;;
68995;SDS011;56056;48.990;12.146;2022-09-09T12:54:12;2.47;;;2.03;;
68995;SDS011;56056;48.990;12.146;2022-09-09T12:56:39;2.97;;;1.67;;
68995;SDS011;56056;48.990;12.146;2022-09-09T12:59:17;2.85;;;2.08;;
68995;SDS011;56056;48.990;12.146;2022-09-09T13:01:54;3.00;;;1.80;;
68995;SDS011;56056;48.990;12.146;2022-09-09T13:04:20;1.95;;;1.83;;
68995;SDS011;56056;48.990;12.146;2022-09-09T13:06:49;2.30;;;2.10;;
68995;SDS011;56056;48.990;12.146;2022-09-09T13:09:17;3.20;;;2.38;;
68995;SDS011;56056;48.990;12.146;2022-09-09T13:11:43;5.03;;;2.10;;
68995;SDS011;56056;48.990;12.146;2022-09-09T13:14:16;2.40;;;2.28;;
68995;SDS011;56056;48.990;12.146;2022-09-09T13:16:53;3.00;;;2.38;;
68995;SDS011;56056;48.990;12.146;2022-09-09T13:19:19;3.17;;;2.40;;
68995;SDS011;56056;48.990;12.146;2022-09-09T13:21:46;1.85;;;1.75;;
68995;SDS011;56056;48.990;12.146;2022-09-09T13:24:22;2.40;;;2.20;;
68995;SDS011;56056;48.990;12.146;2022-09-09T13:26:54;3.47;;;2.28;;
68995;SDS011;56056;48.990;12.146;2022-09-09T13:29:22;2.70;;;2.50;;
68995;SDS011;56056;48.990;12.146;2022-09-09T13:31:48;2.75;;;2.30;;
68995;SDS011;56056;48.990;12.146;2022-09-09T13:34:25;3.03;;;2.05;;
68995;SDS011;56056;48.990;12.146;2022-09-09T13:36:52;1.92;;;1.80;;
68995;SDS011;56056;48.990;12.146;2022-09-09T13:39:20;2.30;;;2.10;;
68995;SDS011;56056;48.990;12.146;2022-09-09T13:41:46;2.45;;;2.05;;
68995;SDS011;56056;48.990;12.146;2022-09-09T13:44:17;2.63;;;2.00;;
68995;SDS011;56056;48.990;12.146;2022-09-09T13:46:46;3.55;;;1.80;;
68995;SDS011;56056;48.990;12.146;2022-09-09T13:49:19;1.77;;;1.67;;
68995;SDS011;56056;48.990;12.146;2022-09-09T13:51:47;1.50;;;1.40;;
68995;SDS011;56056;48.990;12.146;2022-09-09T13:54:14;1.50;;;1.25;;
68995;SDS011;56056;48.990;12.146;2022-09-09T13:56:41;0.95;;;0.95;;
68995;SDS011;56056;48.990;12.146;2022-09-09T13:59:09;5.68;;;1.20;;
68995;SDS011;56056;48.990;12.146;2022-09-09T14:01:36;0.88;;;0.88;;
68995;SDS011;56056;48.990;12.146;2022-09-09T14:04:03;1.20;;;1.10;;
68995;SDS011;56056;48.990;12.146;2022-09-09T14:06:31;1.08;;;1.00;;
68995;SDS011;56056;48.990;12.146;2022-09-09T14:08:57;1.23;;;1.13;;
68995;SDS011;56056;48.990;12.146;2022-09-09T14:11:23;2.22;;;1.48;;
68995;SDS011;56056;48.990;12.146;2022-09-09T14:13:49;2.58;;;1.15;;
68995;SDS011;56056;48.990;12.146;2022-09-09T14:16:15;1.70;;;1.40;;
68995;SDS011;56056;48.990;12.146;2022-09-09T14:18:40;1.45;;;1.00;;
68995;SDS011;56056;48.990;12.146;2022-09-09T14:21:08;1.27;;;1.17;;
68995;SDS011;56056;48.990;12.146;2022-09-09T14:23:33;1.10;;;1.00;;
68995;SDS011;56056;48.990;12.146;2022-09-09T14:25:59;1.27;;;1.27;;
68995;SDS011;56056;48.990;12.146;2022-09-09T14:28:25;2.67;;;1.75;;
68995;SDS011;56056;48.990;12.146;2022-09-09T14:30:50;1.70;;;1.60;;
68995;SDS011;56056;48.990;12.146;2022-09-09T14:33:16;2.17;;;1.23;;
68995;SDS011;56056;48.990;12.146;2022-09-09T14:35:42;1.42;;;1.20;;
68995;SDS011;56056;48.990;12.146;2022-09-09T14:38:10;2.05;;;1.33;;